sensor_id;sensor_type;location;lat;lon;timestamp;P1;durP1;ratioP1;P2;durP2;ratioP2
55292;SDS011;41157;53.560;10.098;2023-03-23T00:01:08;8.87;;;5.47;;
55292;SDS011;41157;53.560;10.098;2023-03-23T00:03:36;7.50;;;5.27;;
55292;SDS011;41157;53.560;10.098;2023-03-23T00:06:03;8.87;;;5.37;;
55292;SDS011;41157;53.560;10.098;2023-03-23T00:08:31;8.23;;;5.33;;
55292;SDS011;41157;53.560;10.098;2023-03-23T00:10:59;7.23;;;5.17;;
55292;SDS011;41157;53.560;10.098;2023-03-23T00:13:27;12.90;;;6.20;;
55292;SDS011;41157;53.560;10.098;2023-03-23T00:15:54;7.87;;;5.90;;
55292;SDS011;41157;53.560;10.098;2023-03-23T00:18:23;11.07;;;6.00;;
55292;SDS011;41157;53.560;10.098;2023-03-23T00:20:51;9.00;;;6.40;;
55292;SDS011;41157;53.560;10.098;2023-03-23T00:23:18;11.40;;;7.00;;
55292;SDS011;41157;53.560;10.098;2023-03-23T00:25:46;9.33;;;6.27;;
55292;SDS011;41157;53.560;10.098;2023-03-23T00:28:15;9.80;;;6.80;;
55292;SDS011;41157;53.560;10.098;2023-03-23T00:30:49;10.63;;;7.10;;
55292;SDS011;41157;53.560;10.098;2023-03-23T00:33:21;11.57;;;7.07;;
55292;SDS011;41157;53.560;10.098;2023-03-23T00:35:48;10.67;;;6.80;;
55292;SDS011;41157;53.560;10.098;2023-03-23T00:38:17;10.33;;;6.97;;
55292;SDS011;41157;53.560;10.098;2023-03-23T00:40:44;11.10;;;7.10;;
55292;SDS011;41157;53.560;10.098;2023-03-23T00:43:12;10.27;;;7.47;;
55292;SDS011;41157;53.560;10.098;2023-03-23T00:45:41;8.63;;;7.50;;
55292;SDS011;41157;53.560;10.098;2023-03-23T00:48:09;10.33;;;7.17;;
55292;SDS011;41157;53.560;10.098;2023-03-23T00:50:37;10.23;;;7.77;;
55292;SDS011;41157;53.560;10.098;2023-03-23T00:53:04;10.33;;;7.63;;
55292;SDS011;41157;53.560;10.098;2023-03-23T00:55:31;9.37;;;8.00;;
55292;SDS011;41157;53.560;10.098;2023-03-23T00:57:59;10.57;;;8.00;;
55292;SDS011;41157;53.560;10.098;2023-03-23T01:00:26;11.17;;;7.77;;
55292;SDS011;41157;53.560;10.098;2023-03-23T01:02:54;9.30;;;7.93;;
55292;SDS011;41157;53.560;10.098;2023-03-23T01:05:21;11.67;;;8.77;;
55292;SDS011;41157;53.560;10.098;2023-03-23T01:07:48;11.83;;;8.10;;
55292;SDS011;41157;53.560;10.098;2023-03-23T01:10:15;10.07;;;8.60;;
55292;SDS011;41157;53.560;10.098;2023-03-23T01:12:43;10.17;;;8.57;;
55292;SDS011;41157;53.560;10.098;2023-03-23T01:15:14;11.07;;;8.50;;
55292;SDS011;41157;53.560;10.098;2023-03-23T01:17:42;10.20;;;8.70;;
55292;SDS011;41157;53.560;10.098;2023-03-23T01:20:10;15.40;;;9.10;;
55292;SDS011;41157;53.560;10.098;2023-03-23T01:22:38;11.97;;;9.03;;
55292;SDS011;41157;53.560;10.098;2023-03-23T01:25:05;10.50;;;8.13;;
55292;SDS011;41157;53.560;10.098;2023-03-23T01:27:33;10.53;;;9.43;;
55292;SDS011;41157;53.560;10.098;2023-03-23T01:30:00;10.30;;;8.73;;
55292;SDS011;41157;53.560;10.098;2023-03-23T01:32:27;13.63;;;9.70;;
55292;SDS011;41157;53.560;10.098;2023-03-23T01:34:54;10.63;;;9.40;;
55292;SDS011;41157;53.560;10.098;2023-03-23T01:37:22;12.00;;;9.73;;
55292;SDS011;41157;53.560;10.098;2023-03-23T01:39:51;12.30;;;8.93;;
55292;SDS011;41157;53.560;10.098;2023-03-23T01:42:18;10.33;;;8.90;;
55292;SDS011;41157;53.560;10.098;2023-03-23T01:47:41;11.60;;;9.17;;
55292;SDS011;41157;53.560;10.098;2023-03-23T01:50:08;11.97;;;8.53;;
55292;SDS011;41157;53.560;10.098;2023-03-23T01:52:36;11.83;;;9.00;;
55292;SDS011;41157;53.560;10.098;2023-03-23T01:55:04;10.77;;;9.13;;
55292;SDS011;41157;53.560;10.098;2023-03-23T01:57:32;13.70;;;9.43;;
55292;SDS011;41157;53.560;10.098;2023-03-23T02:00:01;11.93;;;9.23;;
55292;SDS011;41157;53.560;10.098;2023-03-23T02:02:33;14.37;;;9.97;;
55292;SDS011;41157;53.560;10.098;2023-03-23T02:05:02;11.70;;;9.37;;
55292;SDS011;41157;53.560;10.098;2023-03-23T02:07:31;11.63;;;9.33;;
55292;SDS011;41157;53.560;10.098;2023-03-23T02:09:59;13.47;;;9.80;;
55292;SDS011;41157;53.560;10.098;2023-03-23T02:12:26;13.30;;;9.80;;
55292;SDS011;41157;53.560;10.098;2023-03-23T02:14:53;10.93;;;9.03;;
55292;SDS011;41157;53.560;10.098;2023-03-23T02:17:22;11.10;;;9.23;;
55292;SDS011;41157;53.560;10.098;2023-03-23T02:20:00;13.20;;;9.03;;
55292;SDS011;41157;53.560;10.098;2023-03-23T02:22:39;10.00;;;8.37;;
55292;SDS011;41157;53.560;10.098;2023-03-23T02:25:25;9.30;;;8.40;;
55292;SDS011;41157;53.560;10.098;2023-03-23T02:30:40;10.77;;;8.30;;
55292;SDS011;41157;53.560;10.098;2023-03-23T02:33:25;11.03;;;8.93;;
55292;SDS011;41157;53.560;10.098;2023-03-23T02:35:54;11.53;;;8.60;;
55292;SDS011;41157;53.560;10.098;2023-03-23T02:38:25;11.63;;;8.30;;
55292;SDS011;41157;53.560;10.098;2023-03-23T02:40:53;10.90;;;8.67;;
55292;SDS011;41157;53.560;10.098;2023-03-23T02:43:22;10.33;;;8.93;;
55292;SDS011;41157;53.560;10.098;2023-03-23T02:45:51;12.77;;;8.97;;
55292;SDS011;41157;53.560;10.098;2023-03-23T02:48:20;9.00;;;8.20;;
55292;SDS011;41157;53.560;10.098;2023-03-23T02:50:51;15.97;;;9.27;;
55292;SDS011;41157;53.560;10.098;2023-03-23T02:53:20;8.63;;;7.70;;
55292;SDS011;41157;53.560;10.098;2023-03-23T02:55:48;10.83;;;8.33;;
55292;SDS011;41157;53.560;10.098;2023-03-23T02:58:17;10.73;;;8.60;;
55292;SDS011;41157;53.560;10.098;2023-03-23T03:00:45;9.97;;;7.93;;
55292;SDS011;41157;53.560;10.098;2023-03-23T03:03:15;9.37;;;8.07;;
55292;SDS011;41157;53.560;10.098;2023-03-23T03:05:44;10.87;;;8.40;;
55292;SDS011;41157;53.560;10.098;2023-03-23T03:08:18;9.40;;;8.30;;
55292;SDS011;41157;53.560;10.098;2023-03-23T03:10:48;10.97;;;7.87;;
55292;SDS011;41157;53.560;10.098;2023-03-23T03:13:21;9.33;;;7.83;;
55292;SDS011;41157;53.560;10.098;2023-03-23T03:15:51;9.93;;;7.80;;
55292;SDS011;41157;53.560;10.098;2023-03-23T03:18:21;9.73;;;8.10;;
55292;SDS011;41157;53.560;10.098;2023-03-23T03:20:53;9.40;;;8.03;;
55292;SDS011;41157;53.560;10.098;2023-03-23T03:23:22;13.83;;;7.97;;
55292;SDS011;41157;53.560;10.098;2023-03-23T03:25:50;10.97;;;7.93;;
55292;SDS011;41157;53.560;10.098;2023-03-23T03:28:18;10.37;;;7.60;;
55292;SDS011;41157;53.560;10.098;2023-03-23T03:30:47;8.47;;;7.57;;
55292;SDS011;41157;53.560;10.098;2023-03-23T03:33:15;8.70;;;7.80;;
55292;SDS011;41157;53.560;10.098;2023-03-23T03:35:42;10.23;;;7.40;;
55292;SDS011;41157;53.560;10.098;2023-03-23T03:38:11;8.17;;;7.37;;
55292;SDS011;41157;53.560;10.098;2023-03-23T03:40:40;8.70;;;7.90;;
55292;SDS011;41157;53.560;10.098;2023-03-23T03:43:08;8.83;;;7.63;;
55292;SDS011;41157;53.560;10.098;2023-03-23T03:45:35;9.13;;;7.67;;
55292;SDS011;41157;53.560;10.098;2023-03-23T03:48:02;9.33;;;7.47;;
55292;SDS011;41157;53.560;10.098;2023-03-23T03:50:29;8.67;;;7.33;;
55292;SDS011;41157;53.560;10.098;2023-03-23T03:52:57;11.20;;;7.50;;
55292;SDS011;41157;53.560;10.098;2023-03-23T03:55:24;9.53;;;7.27;;
55292;SDS011;41157;53.560;10.098;2023-03-23T03:57:54;9.40;;;7.63;;
55292;SDS011;41157;53.560;10.098;2023-03-23T04:00:22;14.37;;;7.30;;
55292;SDS011;41157;53.560;10.098;2023-03-23T04:02:50;14.13;;;7.87;;
55292;SDS011;41157;53.560;10.098;2023-03-23T04:05:19;12.13;;;7.70;;
55292;SDS011;41157;53.560;10.098;2023-03-23T04:07:47;10.93;;;8.03;;
55292;SDS011;41157;53.560;10.098;2023-03-23T04:10:17;14.30;;;8.40;;
55292;SDS011;41157;53.560;10.098;2023-03-23T04:12:44;10.33;;;8.40;;
55292;SDS011;41157;53.560;10.098;2023-03-23T04:15:13;10.97;;;8.10;;
55292;SDS011;41157;53.560;10.098;2023-03-23T04:17:40;9.43;;;8.23;;
55292;SDS011;41157;53.560;10.098;2023-03-23T04:20:08;11.70;;;8.60;;
55292;SDS011;41157;53.560;10.098;2023-03-23T04:22:40;10.47;;;8.07;;
55292;SDS011;41157;53.560;10.098;2023-03-23T04:25:08;11.37;;;9.40;;
55292;SDS011;41157;53.560;10.098;2023-03-23T04:27:37;10.33;;;8.03;;
55292;SDS011;41157;53.560;10.098;2023-03-23T04:30:08;10.07;;;8.67;;
55292;SDS011;41157;53.560;10.098;2023-03-23T04:32:37;8.97;;;8.07;;
55292;SDS011;41157;53.560;10.098;2023-03-23T04:35:07;13.77;;;9.00;;
55292;SDS011;41157;53.560;10.098;2023-03-23T04:37:34;10.60;;;8.13;;
55292;SDS011;41157;53.560;10.098;2023-03-23T04:40:01;9.10;;;7.90;;
55292;SDS011;41157;53.560;10.098;2023-03-23T04:42:35;10.50;;;7.93;;
55292;SDS011;41157;53.560;10.098;2023-03-23T04:45:03;12.10;;;8.13;;
55292;SDS011;41157;53.560;10.098;2023-03-23T04:47:31;8.97;;;7.70;;
55292;SDS011;41157;53.560;10.098;2023-03-23T04:50:00;12.27;;;8.60;;
55292;SDS011;41157;53.560;10.098;2023-03-23T04:52:27;11.83;;;8.17;;
55292;SDS011;41157;53.560;10.098;2023-03-23T04:54:55;10.40;;;8.20;;
55292;SDS011;41157;53.560;10.098;2023-03-23T04:57:22;10.50;;;8.87;;
55292;SDS011;41157;53.560;10.098;2023-03-23T04:59:50;9.67;;;7.77;;
55292;SDS011;41157;53.560;10.098;2023-03-23T05:02:17;10.77;;;7.53;;
55292;SDS011;41157;53.560;10.098;2023-03-23T05:04:44;11.27;;;8.20;;
55292;SDS011;41157;53.560;10.098;2023-03-23T05:07:13;15.60;;;8.80;;
55292;SDS011;41157;53.560;10.098;2023-03-23T05:09:40;10.93;;;8.40;;
55292;SDS011;41157;53.560;10.098;2023-03-23T05:12:08;9.83;;;7.53;;
55292;SDS011;41157;53.560;10.098;2023-03-23T05:14:35;8.93;;;7.63;;
55292;SDS011;41157;53.560;10.098;2023-03-23T05:17:06;10.03;;;7.47;;
55292;SDS011;41157;53.560;10.098;2023-03-23T05:19:34;10.00;;;8.27;;
55292;SDS011;41157;53.560;10.098;2023-03-23T05:22:01;11.57;;;7.63;;
55292;SDS011;41157;53.560;10.098;2023-03-23T05:24:30;9.73;;;7.70;;
55292;SDS011;41157;53.560;10.098;2023-03-23T05:26:57;10.40;;;8.40;;
55292;SDS011;41157;53.560;10.098;2023-03-23T05:29:24;10.77;;;7.77;;
55292;SDS011;41157;53.560;10.098;2023-03-23T05:31:54;10.77;;;7.80;;
55292;SDS011;41157;53.560;10.098;2023-03-23T05:34:24;9.37;;;6.93;;
55292;SDS011;41157;53.560;10.098;2023-03-23T05:36:51;11.57;;;7.50;;
55292;SDS011;41157;53.560;10.098;2023-03-23T05:39:20;10.67;;;7.23;;
55292;SDS011;41157;53.560;10.098;2023-03-23T05:41:49;7.93;;;6.30;;
55292;SDS011;41157;53.560;10.098;2023-03-23T05:44:16;9.63;;;6.57;;
55292;SDS011;41157;53.560;10.098;2023-03-23T05:46:43;8.03;;;6.13;;
55292;SDS011;41157;53.560;10.098;2023-03-23T05:49:10;9.33;;;6.50;;
55292;SDS011;41157;53.560;10.098;2023-03-23T05:51:38;9.93;;;6.40;;
55292;SDS011;41157;53.560;10.098;2023-03-23T05:54:05;10.30;;;6.67;;
55292;SDS011;41157;53.560;10.098;2023-03-23T05:56:33;8.33;;;6.13;;
55292;SDS011;41157;53.560;10.098;2023-03-23T05:59:01;7.70;;;5.77;;
55292;SDS011;41157;53.560;10.098;2023-03-23T06:01:28;8.57;;;5.33;;
55292;SDS011;41157;53.560;10.098;2023-03-23T06:03:56;7.23;;;5.70;;
55292;SDS011;41157;53.560;10.098;2023-03-23T06:06:24;7.70;;;5.70;;
55292;SDS011;41157;53.560;10.098;2023-03-23T06:08:51;9.90;;;5.60;;
55292;SDS011;41157;53.560;10.098;2023-03-23T06:11:18;10.73;;;5.90;;
55292;SDS011;41157;53.560;10.098;2023-03-23T06:13:45;11.63;;;6.73;;
55292;SDS011;41157;53.560;10.098;2023-03-23T06:16:14;7.60;;;5.60;;
55292;SDS011;41157;53.560;10.098;2023-03-23T06:18:41;8.20;;;5.30;;
55292;SDS011;41157;53.560;10.098;2023-03-23T06:21:08;6.67;;;4.87;;
55292;SDS011;41157;53.560;10.098;2023-03-23T06:23:36;8.47;;;4.73;;
55292;SDS011;41157;53.560;10.098;2023-03-23T06:26:04;5.60;;;4.90;;
55292;SDS011;41157;53.560;10.098;2023-03-23T06:28:31;6.27;;;4.50;;
55292;SDS011;41157;53.560;10.098;2023-03-23T06:30:58;5.53;;;5.00;;
55292;SDS011;41157;53.560;10.098;2023-03-23T06:33:27;9.40;;;4.53;;
55292;SDS011;41157;53.560;10.098;2023-03-23T06:35:54;6.20;;;4.53;;
55292;SDS011;41157;53.560;10.098;2023-03-23T06:38:22;9.73;;;4.23;;
55292;SDS011;41157;53.560;10.098;2023-03-23T06:40:51;10.73;;;4.77;;
55292;SDS011;41157;53.560;10.098;2023-03-23T06:43:22;4.40;;;4.00;;
55292;SDS011;41157;53.560;10.098;2023-03-23T06:45:49;6.27;;;4.27;;
55292;SDS011;41157;53.560;10.098;2023-03-23T06:48:17;6.27;;;3.90;;
55292;SDS011;41157;53.560;10.098;2023-03-23T06:56:33;8.60;;;4.10;;
55292;SDS011;41157;53.560;10.098;2023-03-23T06:59:00;5.63;;;3.80;;
55292;SDS011;41157;53.560;10.098;2023-03-23T07:01:27;7.70;;;3.47;;
55292;SDS011;41157;53.560;10.098;2023-03-23T07:03:55;6.57;;;3.83;;
55292;SDS011;41157;53.560;10.098;2023-03-23T07:06:23;7.90;;;4.20;;
55292;SDS011;41157;53.560;10.098;2023-03-23T07:08:51;6.53;;;3.60;;
55292;SDS011;41157;53.560;10.098;2023-03-23T07:11:18;8.00;;;4.03;;
55292;SDS011;41157;53.560;10.098;2023-03-23T07:13:45;5.67;;;3.80;;
55292;SDS011;41157;53.560;10.098;2023-03-23T07:16:13;4.63;;;3.40;;
55292;SDS011;41157;53.560;10.098;2023-03-23T07:18:40;6.57;;;3.90;;
55292;SDS011;41157;53.560;10.098;2023-03-23T07:21:07;4.83;;;3.87;;
55292;SDS011;41157;53.560;10.098;2023-03-23T07:23:36;9.93;;;3.53;;
55292;SDS011;41157;53.560;10.098;2023-03-23T07:26:03;5.93;;;3.57;;
55292;SDS011;41157;53.560;10.098;2023-03-23T07:28:31;4.10;;;3.20;;
55292;SDS011;41157;53.560;10.098;2023-03-23T07:30:58;5.77;;;3.20;;
55292;SDS011;41157;53.560;10.098;2023-03-23T07:33:25;5.47;;;3.10;;
55292;SDS011;41157;53.560;10.098;2023-03-23T07:35:52;8.90;;;2.97;;
55292;SDS011;41157;53.560;10.098;2023-03-23T07:38:19;7.87;;;3.60;;
55292;SDS011;41157;53.560;10.098;2023-03-23T07:40:48;4.37;;;3.57;;
55292;SDS011;41157;53.560;10.098;2023-03-23T07:43:15;7.10;;;3.30;;
55292;SDS011;41157;53.560;10.098;2023-03-23T07:45:42;5.40;;;2.97;;
55292;SDS011;41157;53.560;10.098;2023-03-23T07:48:09;3.60;;;2.90;;
55292;SDS011;41157;53.560;10.098;2023-03-23T07:50:36;6.50;;;3.43;;
55292;SDS011;41157;53.560;10.098;2023-03-23T07:53:03;7.23;;;2.90;;
55292;SDS011;41157;53.560;10.098;2023-03-23T07:55:30;3.93;;;3.20;;
55292;SDS011;41157;53.560;10.098;2023-03-23T07:57:59;3.43;;;2.93;;
55292;SDS011;41157;53.560;10.098;2023-03-23T08:00:26;5.53;;;3.00;;
55292;SDS011;41157;53.560;10.098;2023-03-23T08:02:55;4.50;;;3.20;;
55292;SDS011;41157;53.560;10.098;2023-03-23T08:05:24;8.90;;;2.80;;
55292;SDS011;41157;53.560;10.098;2023-03-23T08:07:52;12.23;;;3.40;;
55292;SDS011;41157;53.560;10.098;2023-03-23T08:10:21;5.53;;;3.37;;
55292;SDS011;41157;53.560;10.098;2023-03-23T08:12:50;5.27;;;3.33;;
55292;SDS011;41157;53.560;10.098;2023-03-23T08:15:19;3.67;;;3.10;;
55292;SDS011;41157;53.560;10.098;2023-03-23T08:17:46;4.50;;;3.43;;
55292;SDS011;41157;53.560;10.098;2023-03-23T08:20:14;3.50;;;3.20;;
55292;SDS011;41157;53.560;10.098;2023-03-23T08:22:42;4.97;;;3.17;;
55292;SDS011;41157;53.560;10.098;2023-03-23T08:25:10;4.77;;;3.50;;
55292;SDS011;41157;53.560;10.098;2023-03-23T08:27:38;4.17;;;3.07;;
55292;SDS011;41157;53.560;10.098;2023-03-23T08:30:08;7.13;;;3.47;;
55292;SDS011;41157;53.560;10.098;2023-03-23T08:32:37;4.53;;;2.90;;
55292;SDS011;41157;53.560;10.098;2023-03-23T08:35:04;8.47;;;5.93;;
55292;SDS011;41157;53.560;10.098;2023-03-23T08:37:32;5.00;;;3.33;;
55292;SDS011;41157;53.560;10.098;2023-03-23T08:39:59;4.73;;;3.20;;
55292;SDS011;41157;53.560;10.098;2023-03-23T08:42:32;4.60;;;2.33;;
55292;SDS011;41157;53.560;10.098;2023-03-23T08:44:59;2.57;;;1.60;;
55292;SDS011;41157;53.560;10.098;2023-03-23T08:47:28;4.37;;;1.50;;
55292;SDS011;41157;53.560;10.098;2023-03-23T08:49:56;2.20;;;1.60;;
55292;SDS011;41157;53.560;10.098;2023-03-23T08:52:23;4.63;;;1.80;;
55292;SDS011;41157;53.560;10.098;2023-03-23T08:54:50;3.83;;;2.50;;
55292;SDS011;41157;53.560;10.098;2023-03-23T08:57:17;5.87;;;3.20;;
55292;SDS011;41157;53.560;10.098;2023-03-23T08:59:44;3.30;;;3.00;;
55292;SDS011;41157;53.560;10.098;2023-03-23T09:02:11;5.13;;;3.20;;
55292;SDS011;41157;53.560;10.098;2023-03-23T09:04:38;5.20;;;3.40;;
55292;SDS011;41157;53.560;10.098;2023-03-23T09:07:08;4.37;;;3.30;;
55292;SDS011;41157;53.560;10.098;2023-03-23T09:09:36;6.53;;;3.40;;
55292;SDS011;41157;53.560;10.098;2023-03-23T09:12:04;8.70;;;3.30;;
55292;SDS011;41157;53.560;10.098;2023-03-23T09:14:31;5.40;;;2.70;;
55292;SDS011;41157;53.560;10.098;2023-03-23T09:16:58;9.73;;;2.67;;
55292;SDS011;41157;53.560;10.098;2023-03-23T09:19:26;8.20;;;2.00;;
55292;SDS011;41157;53.560;10.098;2023-03-23T09:21:53;4.83;;;2.20;;
55292;SDS011;41157;53.560;10.098;2023-03-23T09:24:21;5.80;;;2.27;;
55292;SDS011;41157;53.560;10.098;2023-03-23T09:26:48;5.17;;;2.07;;
55292;SDS011;41157;53.560;10.098;2023-03-23T09:29:15;7.83;;;2.73;;
55292;SDS011;41157;53.560;10.098;2023-03-23T09:31:43;6.23;;;2.77;;
55292;SDS011;41157;53.560;10.098;2023-03-23T09:34:11;7.90;;;2.57;;
55292;SDS011;41157;53.560;10.098;2023-03-23T09:36:40;6.83;;;2.23;;
55292;SDS011;41157;53.560;10.098;2023-03-23T09:39:08;5.03;;;2.17;;
55292;SDS011;41157;53.560;10.098;2023-03-23T09:41:45;5.70;;;2.17;;
55292;SDS011;41157;53.560;10.098;2023-03-23T09:44:19;9.83;;;2.30;;
55292;SDS011;41157;53.560;10.098;2023-03-23T09:46:51;7.80;;;2.50;;
55292;SDS011;41157;53.560;10.098;2023-03-23T09:49:21;7.57;;;2.83;;
55292;SDS011;41157;53.560;10.098;2023-03-23T09:51:50;11.60;;;2.60;;
55292;SDS011;41157;53.560;10.098;2023-03-23T09:54:19;10.27;;;2.67;;
55292;SDS011;41157;53.560;10.098;2023-03-23T09:56:49;12.23;;;2.53;;
55292;SDS011;41157;53.560;10.098;2023-03-23T09:59:19;8.10;;;2.13;;
55292;SDS011;41157;53.560;10.098;2023-03-23T10:01:48;7.90;;;2.53;;
55292;SDS011;41157;53.560;10.098;2023-03-23T10:04:27;5.97;;;2.30;;
55292;SDS011;41157;53.560;10.098;2023-03-23T10:06:56;7.40;;;2.43;;
55292;SDS011;41157;53.560;10.098;2023-03-23T10:09:25;8.03;;;2.47;;
55292;SDS011;41157;53.560;10.098;2023-03-23T10:11:56;8.00;;;2.50;;
55292;SDS011;41157;53.560;10.098;2023-03-23T10:17:09;6.23;;;2.27;;
55292;SDS011;41157;53.560;10.098;2023-03-23T10:19:39;8.87;;;2.90;;
55292;SDS011;41157;53.560;10.098;2023-03-23T10:22:08;8.97;;;2.63;;
55292;SDS011;41157;53.560;10.098;2023-03-23T10:24:39;9.57;;;2.60;;
55292;SDS011;41157;53.560;10.098;2023-03-23T10:27:13;9.50;;;2.85;;
55292;SDS011;41157;53.560;10.098;2023-03-23T10:29:44;8.50;;;3.10;;
55292;SDS011;41157;53.560;10.098;2023-03-23T10:32:15;7.32;;;2.70;;
55292;SDS011;41157;53.560;10.098;2023-03-23T10:34:44;7.85;;;2.70;;
55292;SDS011;41157;53.560;10.098;2023-03-23T10:37:12;8.82;;;2.80;;
55292;SDS011;41157;53.560;10.098;2023-03-23T10:39:43;8.77;;;2.70;;
55292;SDS011;41157;53.560;10.098;2023-03-23T10:42:20;8.05;;;2.83;;
55292;SDS011;41157;53.560;10.098;2023-03-23T10:44:47;9.88;;;2.58;;
55292;SDS011;41157;53.560;10.098;2023-03-23T10:47:15;7.95;;;2.70;;
55292;SDS011;41157;53.560;10.098;2023-03-23T10:49:43;8.07;;;2.90;;
55292;SDS011;41157;53.560;10.098;2023-03-23T10:52:24;9.90;;;2.95;;
55292;SDS011;41157;53.560;10.098;2023-03-23T10:54:54;8.20;;;2.50;;
55292;SDS011;41157;53.560;10.098;2023-03-23T10:57:23;9.93;;;3.67;;
55292;SDS011;41157;53.560;10.098;2023-03-23T10:59:57;10.80;;;2.83;;
55292;SDS011;41157;53.560;10.098;2023-03-23T11:02:24;16.53;;;3.10;;
55292;SDS011;41157;53.560;10.098;2023-03-23T11:04:55;16.00;;;3.13;;
55292;SDS011;41157;53.560;10.098;2023-03-23T11:07:25;8.80;;;3.00;;
55292;SDS011;41157;53.560;10.098;2023-03-23T11:09:53;10.43;;;3.10;;
55292;SDS011;41157;53.560;10.098;2023-03-23T11:12:22;10.73;;;3.00;;
55292;SDS011;41157;53.560;10.098;2023-03-23T11:14:49;12.50;;;2.87;;
55292;SDS011;41157;53.560;10.098;2023-03-23T11:17:21;11.63;;;2.50;;
55292;SDS011;41157;53.560;10.098;2023-03-23T11:19:48;9.27;;;2.80;;
55292;SDS011;41157;53.560;10.098;2023-03-23T11:22:16;13.87;;;3.50;;
55292;SDS011;41157;53.560;10.098;2023-03-23T11:24:45;10.90;;;2.73;;
55292;SDS011;41157;53.560;10.098;2023-03-23T11:27:13;8.97;;;2.80;;
55292;SDS011;41157;53.560;10.098;2023-03-23T11:29:45;10.50;;;3.17;;
55292;SDS011;41157;53.560;10.098;2023-03-23T11:32:12;12.87;;;2.83;;
55292;SDS011;41157;53.560;10.098;2023-03-23T11:34:41;8.93;;;2.67;;
55292;SDS011;41157;53.560;10.098;2023-03-23T11:37:09;12.10;;;3.03;;
55292;SDS011;41157;53.560;10.098;2023-03-23T11:39:46;11.33;;;3.30;;
55292;SDS011;41157;53.560;10.098;2023-03-23T11:42:17;12.27;;;3.27;;
55292;SDS011;41157;53.560;10.098;2023-03-23T11:44:46;10.47;;;3.10;;
55292;SDS011;41157;53.560;10.098;2023-03-23T11:47:16;13.40;;;2.90;;
55292;SDS011;41157;53.560;10.098;2023-03-23T11:49:45;12.83;;;3.73;;
55292;SDS011;41157;53.560;10.098;2023-03-23T11:52:17;12.27;;;3.10;;
55292;SDS011;41157;53.560;10.098;2023-03-23T11:54:46;11.80;;;3.67;;
55292;SDS011;41157;53.560;10.098;2023-03-23T11:57:15;10.80;;;3.37;;
55292;SDS011;41157;53.560;10.098;2023-03-23T11:59:43;15.50;;;3.63;;
55292;SDS011;41157;53.560;10.098;2023-03-23T12:02:21;10.37;;;3.20;;
55292;SDS011;41157;53.560;10.098;2023-03-23T12:04:55;8.27;;;3.00;;
55292;SDS011;41157;53.560;10.098;2023-03-23T12:07:28;8.57;;;2.80;;
55292;SDS011;41157;53.560;10.098;2023-03-23T12:10:01;10.60;;;3.40;;
55292;SDS011;41157;53.560;10.098;2023-03-23T12:12:32;6.80;;;3.07;;
55292;SDS011;41157;53.560;10.098;2023-03-23T12:15:03;11.63;;;3.33;;
55292;SDS011;41157;53.560;10.098;2023-03-23T12:17:37;7.60;;;2.80;;
55292;SDS011;41157;53.560;10.098;2023-03-23T12:20:12;12.67;;;3.10;;
55292;SDS011;41157;53.560;10.098;2023-03-23T12:22:46;9.97;;;3.20;;
55292;SDS011;41157;53.560;10.098;2023-03-23T12:28:04;15.47;;;3.10;;
55292;SDS011;41157;53.560;10.098;2023-03-23T12:30:35;8.97;;;3.07;;
55292;SDS011;41157;53.560;10.098;2023-03-23T12:33:13;9.50;;;3.10;;
55292;SDS011;41157;53.560;10.098;2023-03-23T12:35:48;11.03;;;3.50;;
55292;SDS011;41157;53.560;10.098;2023-03-23T12:38:22;8.63;;;3.03;;
55292;SDS011;41157;53.560;10.098;2023-03-23T12:40:58;8.40;;;2.70;;
55292;SDS011;41157;53.560;10.098;2023-03-23T12:43:31;12.40;;;3.27;;
55292;SDS011;41157;53.560;10.098;2023-03-23T12:46:03;11.47;;;3.00;;
55292;SDS011;41157;53.560;10.098;2023-03-23T13:33:29;8.43;;;2.70;;
55292;SDS011;41157;53.560;10.098;2023-03-23T13:36:01;9.33;;;2.80;;
55292;SDS011;41157;53.560;10.098;2023-03-23T13:38:32;10.90;;;3.13;;
55292;SDS011;41157;53.560;10.098;2023-03-23T13:41:05;8.67;;;2.67;;
55292;SDS011;41157;53.560;10.098;2023-03-23T13:43:33;9.30;;;2.90;;
55292;SDS011;41157;53.560;10.098;2023-03-23T13:46:08;8.77;;;2.90;;
55292;SDS011;41157;53.560;10.098;2023-03-23T13:48:44;6.27;;;2.53;;
55292;SDS011;41157;53.560;10.098;2023-03-23T13:54:05;7.10;;;2.27;;
55292;SDS011;41157;53.560;10.098;2023-03-23T13:56:35;8.53;;;2.87;;
55292;SDS011;41157;53.560;10.098;2023-03-23T13:59:06;8.43;;;3.27;;
55292;SDS011;41157;53.560;10.098;2023-03-23T14:01:34;5.77;;;2.27;;
55292;SDS011;41157;53.560;10.098;2023-03-23T14:04:03;4.63;;;2.27;;
55292;SDS011;41157;53.560;10.098;2023-03-23T14:06:33;6.07;;;2.10;;
55292;SDS011;41157;53.560;10.098;2023-03-23T14:09:04;4.73;;;2.30;;
55292;SDS011;41157;53.560;10.098;2023-03-23T14:11:31;6.83;;;2.13;;
55292;SDS011;41157;53.560;10.098;2023-03-23T14:14:06;3.83;;;1.80;;
55292;SDS011;41157;53.560;10.098;2023-03-23T14:16:37;2.27;;;1.43;;
55292;SDS011;41157;53.560;10.098;2023-03-23T14:19:14;2.27;;;1.20;;
55292;SDS011;41157;53.560;10.098;2023-03-23T14:21:44;4.00;;;1.40;;
55292;SDS011;41157;53.560;10.098;2023-03-23T14:24:15;4.80;;;1.50;;
55292;SDS011;41157;53.560;10.098;2023-03-23T14:26:43;3.60;;;1.70;;
55292;SDS011;41157;53.560;10.098;2023-03-23T14:29:11;3.37;;;1.70;;
55292;SDS011;41157;53.560;10.098;2023-03-23T14:31:38;4.43;;;1.57;;
55292;SDS011;41157;53.560;10.098;2023-03-23T14:34:11;3.57;;;1.53;;
55292;SDS011;41157;53.560;10.098;2023-03-23T14:36:40;3.10;;;1.60;;
55292;SDS011;41157;53.560;10.098;2023-03-23T14:39:13;3.70;;;1.77;;
55292;SDS011;41157;53.560;10.098;2023-03-23T14:41:41;4.97;;;1.90;;
55292;SDS011;41157;53.560;10.098;2023-03-23T14:44:10;3.10;;;1.30;;
55292;SDS011;41157;53.560;10.098;2023-03-23T14:46:40;4.83;;;1.60;;
55292;SDS011;41157;53.560;10.098;2023-03-23T14:49:10;4.87;;;1.57;;
55292;SDS011;41157;53.560;10.098;2023-03-23T14:51:47;3.93;;;1.40;;
55292;SDS011;41157;53.560;10.098;2023-03-23T14:54:14;4.13;;;1.67;;
55292;SDS011;41157;53.560;10.098;2023-03-23T14:56:41;3.60;;;1.53;;
55292;SDS011;41157;53.560;10.098;2023-03-23T14:59:09;3.97;;;1.70;;
55292;SDS011;41157;53.560;10.098;2023-03-23T15:01:37;4.90;;;1.83;;
55292;SDS011;41157;53.560;10.098;2023-03-23T15:04:07;4.97;;;1.70;;
55292;SDS011;41157;53.560;10.098;2023-03-23T15:06:36;6.37;;;1.90;;
55292;SDS011;41157;53.560;10.098;2023-03-23T15:09:05;3.40;;;1.67;;
55292;SDS011;41157;53.560;10.098;2023-03-23T15:11:34;4.47;;;1.50;;
55292;SDS011;41157;53.560;10.098;2023-03-23T15:14:02;5.03;;;1.80;;
55292;SDS011;41157;53.560;10.098;2023-03-23T15:16:30;3.53;;;2.10;;
55292;SDS011;41157;53.560;10.098;2023-03-23T15:18:59;3.63;;;1.70;;
55292;SDS011;41157;53.560;10.098;2023-03-23T15:21:27;3.40;;;1.93;;
55292;SDS011;41157;53.560;10.098;2023-03-23T15:23:54;6.00;;;2.13;;
55292;SDS011;41157;53.560;10.098;2023-03-23T15:26:31;4.10;;;2.17;;
55292;SDS011;41157;53.560;10.098;2023-03-23T15:29:00;4.20;;;1.87;;
55292;SDS011;41157;53.560;10.098;2023-03-23T15:31:27;4.77;;;2.17;;
55292;SDS011;41157;53.560;10.098;2023-03-23T15:33:55;3.90;;;2.00;;
55292;SDS011;41157;53.560;10.098;2023-03-23T15:36:23;5.37;;;2.10;;
55292;SDS011;41157;53.560;10.098;2023-03-23T15:38:51;6.90;;;2.37;;
55292;SDS011;41157;53.560;10.098;2023-03-23T15:41:22;6.57;;;1.83;;
55292;SDS011;41157;53.560;10.098;2023-03-23T15:43:51;5.43;;;2.30;;
55292;SDS011;41157;53.560;10.098;2023-03-23T15:46:20;7.07;;;2.93;;